sensor_id;sensor_type;location;lat;lon;timestamp;P1;durP1;ratioP1;P2;durP2;ratioP2
20671;SDS011;10495;50.922;4.760;2023-05-13T00:01:11;5.77;;;4.90;;
20671;SDS011;10495;50.922;4.760;2023-05-13T00:03:37;5.80;;;5.30;;
20671;SDS011;10495;50.922;4.760;2023-05-13T00:06:02;5.73;;;5.23;;
20671;SDS011;10495;50.922;4.760;2023-05-13T00:08:28;6.10;;;5.50;;
20671;SDS011;10495;50.922;4.760;2023-05-13T00:10:54;6.30;;;5.70;;
20671;SDS011;10495;50.922;4.760;2023-05-13T00:13:19;5.93;;;5.33;;
20671;SDS011;10495;50.922;4.760;2023-05-13T00:15:45;5.77;;;5.17;;
20671;SDS011;10495;50.922;4.760;2023-05-13T00:18:11;6.10;;;5.50;;
20671;SDS011;10495;50.922;4.760;2023-05-13T00:20:36;5.30;;;4.80;;
20671;SDS011;10495;50.922;4.760;2023-05-13T00:23:02;6.00;;;5.40;;
20671;SDS011;10495;50.922;4.760;2023-05-13T00:25:28;5.80;;;5.20;;
20671;SDS011;10495;50.922;4.760;2023-05-13T00:27:53;7.17;;;5.93;;
20671;SDS011;10495;50.922;4.760;2023-05-13T00:30:19;6.00;;;5.40;;
20671;SDS011;10495;50.922;4.760;2023-05-13T00:32:45;5.83;;;5.23;;
20671;SDS011;10495;50.922;4.760;2023-05-13T00:35:10;6.70;;;6.00;;
20671;SDS011;10495;50.922;4.760;2023-05-13T00:37:37;6.13;;;5.60;;
20671;SDS011;10495;50.922;4.760;2023-05-13T00:40:02;6.53;;;5.93;;
20671;SDS011;10495;50.922;4.760;2023-05-13T00:42:28;6.97;;;6.27;;
20671;SDS011;10495;50.922;4.760;2023-05-13T00:44:54;7.13;;;6.43;;
20671;SDS011;10495;50.922;4.760;2023-05-13T00:47:20;7.20;;;6.50;;
20671;SDS011;10495;50.922;4.760;2023-05-13T00:49:46;6.83;;;6.17;;
20671;SDS011;10495;50.922;4.760;2023-05-13T00:52:12;7.73;;;6.93;;
20671;SDS011;10495;50.922;4.760;2023-05-13T00:54:38;7.67;;;6.87;;
20671;SDS011;10495;50.922;4.760;2023-05-13T00:57:03;9.17;;;7.27;;
20671;SDS011;10495;50.922;4.760;2023-05-13T00:59:29;7.77;;;6.60;;
20671;SDS011;10495;50.922;4.760;2023-05-13T01:10:52;7.73;;;6.70;;
20671;SDS011;10495;50.922;4.760;2023-05-13T01:13:25;7.63;;;6.83;;
20671;SDS011;10495;50.922;4.760;2023-05-13T01:16:15;7.37;;;6.67;;
20671;SDS011;10495;50.922;4.760;2023-05-13T01:18:51;7.53;;;6.73;;
20671;SDS011;10495;50.922;4.760;2023-05-13T01:21:26;7.87;;;7.07;;
20671;SDS011;10495;50.922;4.760;2023-05-13T01:23:52;8.97;;;8.07;;
20671;SDS011;10495;50.922;4.760;2023-05-13T01:26:18;8.33;;;7.47;;
20671;SDS011;10495;50.922;4.760;2023-05-13T01:28:44;7.77;;;6.67;;
20671;SDS011;10495;50.922;4.760;2023-05-13T01:31:11;7.67;;;6.87;;
20671;SDS011;10495;50.922;4.760;2023-05-13T01:33:37;8.60;;;7.67;;
20671;SDS011;10495;50.922;4.760;2023-05-13T01:36:04;7.80;;;7.00;;
20671;SDS011;10495;50.922;4.760;2023-05-13T01:38:32;7.70;;;6.90;;
20671;SDS011;10495;50.922;4.760;2023-05-13T01:41:00;7.27;;;6.30;;
20671;SDS011;10495;50.922;4.760;2023-05-13T01:43:26;9.93;;;7.17;;
20671;SDS011;10495;50.922;4.760;2023-05-13T01:45:52;9.27;;;7.30;;
20671;SDS011;10495;50.922;4.760;2023-05-13T01:48:17;7.80;;;7.00;;
20671;SDS011;10495;50.922;4.760;2023-05-13T01:50:43;7.43;;;6.73;;
20671;SDS011;10495;50.922;4.760;2023-05-13T01:53:10;9.03;;;7.17;;
20671;SDS011;10495;50.922;4.760;2023-05-13T01:55:36;7.83;;;7.03;;
20671;SDS011;10495;50.922;4.760;2023-05-13T01:58:01;8.93;;;8.03;;
20671;SDS011;10495;50.922;4.760;2023-05-13T02:00:27;9.30;;;7.90;;
20671;SDS011;10495;50.922;4.760;2023-05-13T02:02:53;8.67;;;7.77;;
20671;SDS011;10495;50.922;4.760;2023-05-13T02:05:18;8.60;;;7.70;;
20671;SDS011;10495;50.922;4.760;2023-05-13T02:07:44;8.47;;;7.57;;
20671;SDS011;10495;50.922;4.760;2023-05-13T02:10:10;8.37;;;7.17;;
20671;SDS011;10495;50.922;4.760;2023-05-13T02:12:35;9.50;;;7.70;;
20671;SDS011;10495;50.922;4.760;2023-05-13T02:15:01;10.70;;;8.20;;
20671;SDS011;10495;50.922;4.760;2023-05-13T02:17:27;9.07;;;7.63;;
20671;SDS011;10495;50.922;4.760;2023-05-13T02:19:52;7.50;;;6.77;;
20671;SDS011;10495;50.922;4.760;2023-05-13T02:22:18;10.83;;;7.77;;
20671;SDS011;10495;50.922;4.760;2023-05-13T02:24:44;8.60;;;7.00;;
20671;SDS011;10495;50.922;4.760;2023-05-13T02:27:09;8.23;;;7.00;;
20671;SDS011;10495;50.922;4.760;2023-05-13T02:29:36;7.93;;;6.60;;
20671;SDS011;10495;50.922;4.760;2023-05-13T02:32:02;9.20;;;7.80;;
20671;SDS011;10495;50.922;4.760;2023-05-13T02:34:28;7.90;;;7.03;;
20671;SDS011;10495;50.922;4.760;2023-05-13T02:36:54;8.47;;;7.27;;
20671;SDS011;10495;50.922;4.760;2023-05-13T02:39:20;7.57;;;6.80;;
20671;SDS011;10495;50.922;4.760;2023-05-13T02:41:45;7.97;;;7.03;;
20671;SDS011;10495;50.922;4.760;2023-05-13T02:44:11;7.57;;;6.87;;
20671;SDS011;10495;50.922;4.760;2023-05-13T02:46:36;7.00;;;6.27;;
20671;SDS011;10495;50.922;4.760;2023-05-13T02:49:02;7.13;;;6.43;;
20671;SDS011;10495;50.922;4.760;2023-05-13T02:51:28;6.97;;;6.27;;
20671;SDS011;10495;50.922;4.760;2023-05-13T02:53:53;6.93;;;6.23;;
20671;SDS011;10495;50.922;4.760;2023-05-13T02:56:19;7.23;;;6.27;;
20671;SDS011;10495;50.922;4.760;2023-05-13T02:58:45;7.33;;;6.63;;
20671;SDS011;10495;50.922;4.760;2023-05-13T03:01:11;7.23;;;6.53;;
20671;SDS011;10495;50.922;4.760;2023-05-13T03:03:36;7.23;;;6.53;;
20671;SDS011;10495;50.922;4.760;2023-05-13T03:06:02;7.30;;;6.60;;
20671;SDS011;10495;50.922;4.760;2023-05-13T03:08:28;7.77;;;6.97;;
20671;SDS011;10495;50.922;4.760;2023-05-13T03:10:54;6.53;;;5.93;;
20671;SDS011;10495;50.922;4.760;2023-05-13T03:13:19;8.07;;;6.83;;
20671;SDS011;10495;50.922;4.760;2023-05-13T03:15:45;8.37;;;7.50;;
20671;SDS011;10495;50.922;4.760;2023-05-13T03:18:11;7.30;;;6.60;;
20671;SDS011;10495;50.922;4.760;2023-05-13T03:20:36;7.50;;;6.30;;
20671;SDS011;10495;50.922;4.760;2023-05-13T03:23:02;7.43;;;6.63;;
20671;SDS011;10495;50.922;4.760;2023-05-13T03:25:28;7.17;;;6.53;;
20671;SDS011;10495;50.922;4.760;2023-05-13T03:27:53;8.53;;;7.40;;
20671;SDS011;10495;50.922;4.760;2023-05-13T03:30:19;6.73;;;6.13;;
20671;SDS011;10495;50.922;4.760;2023-05-13T03:32:45;6.57;;;5.97;;
20671;SDS011;10495;50.922;4.760;2023-05-13T03:35:10;7.40;;;6.70;;
20671;SDS011;10495;50.922;4.760;2023-05-13T03:37:36;6.87;;;6.20;;
20671;SDS011;10495;50.922;4.760;2023-05-13T03:40:02;7.77;;;5.70;;
20671;SDS011;10495;50.922;4.760;2023-05-13T03:42:28;7.43;;;6.73;;
20671;SDS011;10495;50.922;4.760;2023-05-13T03:44:54;6.90;;;6.20;;
20671;SDS011;10495;50.922;4.760;2023-05-13T03:47:21;8.07;;;7.23;;
20671;SDS011;10495;50.922;4.760;2023-05-13T03:49:47;6.87;;;6.23;;
20671;SDS011;10495;50.922;4.760;2023-05-13T03:52:14;6.93;;;6.23;;
20671;SDS011;10495;50.922;4.760;2023-05-13T03:54:40;9.13;;;7.27;;
20671;SDS011;10495;50.922;4.760;2023-05-13T03:57:06;7.17;;;6.17;;
20671;SDS011;10495;50.922;4.760;2023-05-13T03:59:33;7.80;;;7.00;;
20671;SDS011;10495;50.922;4.760;2023-05-13T04:01:58;7.73;;;6.93;;
20671;SDS011;10495;50.922;4.760;2023-05-13T04:04:24;9.17;;;7.60;;
20671;SDS011;10495;50.922;4.760;2023-05-13T04:06:50;9.37;;;8.03;;
20671;SDS011;10495;50.922;4.760;2023-05-13T04:09:16;7.70;;;6.90;;
20671;SDS011;10495;50.922;4.760;2023-05-13T04:11:41;7.87;;;7.07;;
20671;SDS011;10495;50.922;4.760;2023-05-13T04:14:07;8.23;;;7.43;;
20671;SDS011;10495;50.922;4.760;2023-05-13T04:16:33;7.43;;;6.73;;
20671;SDS011;10495;50.922;4.760;2023-05-13T04:18:58;8.10;;;6.60;;
20671;SDS011;10495;50.922;4.760;2023-05-13T04:21:24;7.67;;;6.87;;
20671;SDS011;10495;50.922;4.760;2023-05-13T04:23:49;8.43;;;7.53;;
20671;SDS011;10495;50.922;4.760;2023-05-13T04:26:15;8.53;;;7.60;;
20671;SDS011;10495;50.922;4.760;2023-05-13T04:28:41;10.40;;;8.70;;
20671;SDS011;10495;50.922;4.760;2023-05-13T04:31:06;8.23;;;7.43;;
20671;SDS011;10495;50.922;4.760;2023-05-13T04:33:32;11.27;;;8.13;;
20671;SDS011;10495;50.922;4.760;2023-05-13T04:35:58;11.07;;;9.17;;
20671;SDS011;10495;50.922;4.760;2023-05-13T04:38:23;9.63;;;8.10;;
20671;SDS011;10495;50.922;4.760;2023-05-13T04:40:49;9.50;;;8.57;;
20671;SDS011;10495;50.922;4.760;2023-05-13T04:43:15;9.27;;;8.00;;
20671;SDS011;10495;50.922;4.760;2023-05-13T04:45:41;10.60;;;9.50;;
20671;SDS011;10495;50.922;4.760;2023-05-13T04:48:06;10.67;;;9.53;;
20671;SDS011;10495;50.922;4.760;2023-05-13T04:50:32;10.97;;;9.40;;
20671;SDS011;10495;50.922;4.760;2023-05-13T04:52:58;11.10;;;8.90;;
20671;SDS011;10495;50.922;4.760;2023-05-13T04:55:23;10.43;;;9.33;;
20671;SDS011;10495;50.922;4.760;2023-05-13T04:57:49;11.00;;;9.90;;
20671;SDS011;10495;50.922;4.760;2023-05-13T05:00:15;12.00;;;9.93;;
20671;SDS011;10495;50.922;4.760;2023-05-13T05:02:41;10.30;;;9.20;;
20671;SDS011;10495;50.922;4.760;2023-05-13T05:05:06;12.13;;;9.77;;
20671;SDS011;10495;50.922;4.760;2023-05-13T05:07:32;12.60;;;9.40;;
20671;SDS011;10495;50.922;4.760;2023-05-13T05:09:58;12.57;;;11.27;;
20671;SDS011;10495;50.922;4.760;2023-05-13T05:12:24;11.13;;;9.97;;
20671;SDS011;10495;50.922;4.760;2023-05-13T05:14:49;11.97;;;10.00;;
20671;SDS011;10495;50.922;4.760;2023-05-13T05:17:15;14.03;;;11.60;;
20671;SDS011;10495;50.922;4.760;2023-05-13T05:19:41;14.23;;;12.73;;
20671;SDS011;10495;50.922;4.760;2023-05-13T05:22:06;12.63;;;11.30;;
20671;SDS011;10495;50.922;4.760;2023-05-13T05:24:32;14.23;;;12.37;;
20671;SDS011;10495;50.922;4.760;2023-05-13T05:26:58;17.70;;;13.00;;
20671;SDS011;10495;50.922;4.760;2023-05-13T05:29:23;14.83;;;12.70;;
20671;SDS011;10495;50.922;4.760;2023-05-13T05:31:49;17.13;;;13.53;;
20671;SDS011;10495;50.922;4.760;2023-05-13T05:34:15;14.93;;;13.33;;
20671;SDS011;10495;50.922;4.760;2023-05-13T05:36:40;15.77;;;13.50;;
20671;SDS011;10495;50.922;4.760;2023-05-13T05:39:06;18.60;;;14.70;;
20671;SDS011;10495;50.922;4.760;2023-05-13T05:41:32;18.20;;;13.47;;
20671;SDS011;10495;50.922;4.760;2023-05-13T05:43:57;14.57;;;12.77;;
20671;SDS011;10495;50.922;4.760;2023-05-13T05:46:23;17.70;;;12.70;;
20671;SDS011;10495;50.922;4.760;2023-05-13T05:48:49;12.20;;;10.73;;
20671;SDS011;10495;50.922;4.760;2023-05-13T05:51:15;13.10;;;11.70;;
20671;SDS011;10495;50.922;4.760;2023-05-13T05:53:40;11.57;;;10.37;;
20671;SDS011;10495;50.922;4.760;2023-05-13T05:56:06;15.43;;;10.87;;
20671;SDS011;10495;50.922;4.760;2023-05-13T05:58:32;10.97;;;9.43;;
20671;SDS011;10495;50.922;4.760;2023-05-13T06:00:58;11.07;;;9.97;;
20671;SDS011;10495;50.922;4.760;2023-05-13T06:03:24;10.87;;;9.80;;
20671;SDS011;10495;50.922;4.760;2023-05-13T06:05:51;10.83;;;9.33;;
20671;SDS011;10495;50.922;4.760;2023-05-13T06:08:17;10.70;;;9.70;;
20671;SDS011;10495;50.922;4.760;2023-05-13T06:10:43;12.07;;;10.77;;
20671;SDS011;10495;50.922;4.760;2023-05-13T06:13:09;9.48;;;8.55;;
20671;SDS011;10495;50.922;4.760;2023-05-13T06:15:35;10.03;;;9.03;;
20671;SDS011;10495;50.922;4.760;2023-05-13T06:18:02;15.10;;;9.03;;
20671;SDS011;10495;50.922;4.760;2023-05-13T06:20:29;10.63;;;9.30;;
20671;SDS011;10495;50.922;4.760;2023-05-13T06:22:58;10.17;;;8.77;;
20671;SDS011;10495;50.922;4.760;2023-05-13T06:25:24;10.90;;;8.80;;
20671;SDS011;10495;50.922;4.760;2023-05-13T06:27:49;10.57;;;8.87;;
20671;SDS011;10495;50.922;4.760;2023-05-13T06:30:15;13.80;;;8.83;;
20671;SDS011;10495;50.922;4.760;2023-05-13T06:32:41;10.03;;;9.13;;
20671;SDS011;10495;50.922;4.760;2023-05-13T06:35:06;10.77;;;9.68;;
20671;SDS011;10495;50.922;4.760;2023-05-13T06:37:32;10.17;;;8.30;;
20671;SDS011;10495;50.922;4.760;2023-05-13T06:39:59;9.30;;;8.30;;
20671;SDS011;10495;50.922;4.760;2023-05-13T06:42:24;10.35;;;8.10;;
20671;SDS011;10495;50.922;4.760;2023-05-13T06:44:50;8.87;;;8.07;;
20671;SDS011;10495;50.922;4.760;2023-05-13T06:47:16;10.23;;;8.93;;
20671;SDS011;10495;50.922;4.760;2023-05-13T06:49:42;9.73;;;8.73;;
20671;SDS011;10495;50.922;4.760;2023-05-13T06:52:08;9.25;;;8.40;;
20671;SDS011;10495;50.922;4.760;2023-05-13T06:54:34;9.43;;;8.32;;
20671;SDS011;10495;50.922;4.760;2023-05-13T06:57:00;10.27;;;8.27;;
20671;SDS011;10495;50.922;4.760;2023-05-13T06:59:26;9.27;;;8.38;;
20671;SDS011;10495;50.922;4.760;2023-05-13T07:01:51;9.23;;;7.78;;
20671;SDS011;10495;50.922;4.760;2023-05-13T07:04:17;10.07;;;8.27;;
20671;SDS011;10495;50.922;4.760;2023-05-13T07:06:43;8.43;;;7.45;;
20671;SDS011;10495;50.922;4.760;2023-05-13T07:09:08;8.73;;;7.82;;
20671;SDS011;10495;50.922;4.760;2023-05-13T07:11:34;10.75;;;8.27;;
20671;SDS011;10495;50.922;4.760;2023-05-13T07:14:00;8.90;;;6.80;;
20671;SDS011;10495;50.922;4.760;2023-05-13T07:16:26;10.65;;;9.10;;
20671;SDS011;10495;50.922;4.760;2023-05-13T07:18:52;9.40;;;8.02;;
20671;SDS011;10495;50.922;4.760;2023-05-13T07:21:20;9.88;;;8.95;;
20671;SDS011;10495;50.922;4.760;2023-05-13T07:23:46;10.23;;;8.07;;
20671;SDS011;10495;50.922;4.760;2023-05-13T07:26:11;9.25;;;8.35;;
20671;SDS011;10495;50.922;4.760;2023-05-13T07:28:37;12.57;;;8.30;;
20671;SDS011;10495;50.922;4.760;2023-05-13T07:31:03;12.40;;;8.93;;
20671;SDS011;10495;50.922;4.760;2023-05-13T07:33:29;9.32;;;8.43;;
20671;SDS011;10495;50.922;4.760;2023-05-13T07:35:55;9.40;;;8.05;;
20671;SDS011;10495;50.922;4.760;2023-05-13T07:38:21;10.70;;;8.18;;
20671;SDS011;10495;50.922;4.760;2023-05-13T07:40:47;9.43;;;8.32;;
20671;SDS011;10495;50.922;4.760;2023-05-13T07:43:13;8.50;;;7.53;;
20671;SDS011;10495;50.922;4.760;2023-05-13T07:45:41;8.90;;;7.47;;
20671;SDS011;10495;50.922;4.760;2023-05-13T07:48:07;8.93;;;8.05;;
20671;SDS011;10495;50.922;4.760;2023-05-13T07:50:34;8.50;;;7.70;;
20671;SDS011;10495;50.922;4.760;2023-05-13T07:53:01;11.93;;;8.07;;
20671;SDS011;10495;50.922;4.760;2023-05-13T07:55:27;9.30;;;7.80;;
20671;SDS011;10495;50.922;4.760;2023-05-13T07:57:52;10.68;;;7.35;;
20671;SDS011;10495;50.922;4.760;2023-05-13T08:00:18;10.38;;;7.97;;
20671;SDS011;10495;50.922;4.760;2023-05-13T08:02:44;8.88;;;7.88;;
20671;SDS011;10495;50.922;4.760;2023-05-13T08:05:09;8.13;;;7.25;;
20671;SDS011;10495;50.922;4.760;2023-05-13T08:07:36;9.30;;;7.45;;
20671;SDS011;10495;50.922;4.760;2023-05-13T08:10:02;9.35;;;8.40;;
20671;SDS011;10495;50.922;4.760;2023-05-13T08:12:28;7.97;;;7.22;;
20671;SDS011;10495;50.922;4.760;2023-05-13T08:14:53;8.15;;;7.35;;
20671;SDS011;10495;50.922;4.760;2023-05-13T08:17:19;9.70;;;7.47;;
20671;SDS011;10495;50.922;4.760;2023-05-13T08:19:45;8.02;;;7.32;;
20671;SDS011;10495;50.922;4.760;2023-05-13T08:22:10;8.75;;;7.85;;
20671;SDS011;10495;50.922;4.760;2023-05-13T08:24:36;12.63;;;6.75;;
20671;SDS011;10495;50.922;4.760;2023-05-13T08:27:04;10.98;;;7.97;;
20671;SDS011;10495;50.922;4.760;2023-05-13T08:29:30;8.90;;;7.80;;
20671;SDS011;10495;50.922;4.760;2023-05-13T08:31:56;13.68;;;8.30;;
20671;SDS011;10495;50.922;4.760;2023-05-13T08:34:22;9.95;;;7.18;;
20671;SDS011;10495;50.922;4.760;2023-05-13T08:36:48;8.07;;;7.28;;
20671;SDS011;10495;50.922;4.760;2023-05-13T08:39:13;9.57;;;7.57;;
20671;SDS011;10495;50.922;4.760;2023-05-13T08:41:40;9.23;;;7.70;;
20671;SDS011;10495;50.922;4.760;2023-05-13T08:44:08;14.65;;;7.50;;
20671;SDS011;10495;50.922;4.760;2023-05-13T08:46:37;12.02;;;7.60;;
20671;SDS011;10495;50.922;4.760;2023-05-13T08:49:05;8.18;;;6.80;;
20671;SDS011;10495;50.922;4.760;2023-05-13T08:51:33;8.45;;;7.55;;
20671;SDS011;10495;50.922;4.760;2023-05-13T08:53:58;10.48;;;7.78;;
20671;SDS011;10495;50.922;4.760;2023-05-13T08:56:25;10.55;;;7.03;;
20671;SDS011;10495;50.922;4.760;2023-05-13T08:58:53;9.38;;;6.47;;
20671;SDS011;10495;50.922;4.760;2023-05-13T09:01:19;7.97;;;7.13;;
20671;SDS011;10495;50.922;4.760;2023-05-13T09:04:07;8.32;;;7.45;;
20671;SDS011;10495;50.922;4.760;2023-05-13T09:06:33;9.02;;;6.95;;
20671;SDS011;10495;50.922;4.760;2023-05-13T09:08:58;11.23;;;7.88;;
20671;SDS011;10495;50.922;4.760;2023-05-13T09:11:24;7.85;;;6.75;;
20671;SDS011;10495;50.922;4.760;2023-05-13T09:13:57;10.65;;;6.57;;
20671;SDS011;10495;50.922;4.760;2023-05-13T09:16:23;8.20;;;6.85;;
20671;SDS011;10495;50.922;4.760;2023-05-13T09:18:55;8.88;;;6.82;;
20671;SDS011;10495;50.922;4.760;2023-05-13T09:21:26;12.80;;;8.80;;
20671;SDS011;10495;50.922;4.760;2023-05-13T09:24:06;8.93;;;7.90;;
20671;SDS011;10495;50.922;4.760;2023-05-13T09:26:33;52.05;;;19.90;;
20671;SDS011;10495;50.922;4.760;2023-05-13T09:31:52;8.73;;;7.28;;
20671;SDS011;10495;50.922;4.760;2023-05-13T09:39:31;10.40;;;7.07;;
20671;SDS011;10495;50.922;4.760;2023-05-13T09:41:59;10.68;;;8.10;;
20671;SDS011;10495;50.922;4.760;2023-05-13T09:44:26;8.95;;;7.78;;
20671;SDS011;10495;50.922;4.760;2023-05-13T09:46:52;7.90;;;7.10;;
20671;SDS011;10495;50.922;4.760;2023-05-13T09:49:20;12.15;;;7.47;;
20671;SDS011;10495;50.922;4.760;2023-05-13T09:51:47;11.18;;;7.20;;
20671;SDS011;10495;50.922;4.760;2023-05-13T09:54:13;16.05;;;8.32;;
20671;SDS011;10495;50.922;4.760;2023-05-13T09:56:40;6.80;;;6.10;;
20671;SDS011;10495;50.922;4.760;2023-05-13T09:59:05;8.27;;;6.82;;
20671;SDS011;10495;50.922;4.760;2023-05-13T10:01:31;9.55;;;6.50;;
20671;SDS011;10495;50.922;4.760;2023-05-13T10:03:59;6.93;;;6.05;;
20671;SDS011;10495;50.922;4.760;2023-05-13T10:06:25;9.68;;;5.35;;
20671;SDS011;10495;50.922;4.760;2023-05-13T10:08:58;9.50;;;7.07;;
20671;SDS011;10495;50.922;4.760;2023-05-13T10:11:29;8.70;;;5.82;;
20671;SDS011;10495;50.922;4.760;2023-05-13T10:14:00;8.93;;;6.43;;
20671;SDS011;10495;50.922;4.760;2023-05-13T10:16:30;12.80;;;7.20;;
20671;SDS011;10495;50.922;4.760;2023-05-13T10:19:01;8.73;;;6.10;;
20671;SDS011;10495;50.922;4.760;2023-05-13T10:21:28;8.52;;;6.63;;
20671;SDS011;10495;50.922;4.760;2023-05-13T10:23:54;8.07;;;6.22;;
20671;SDS011;10495;50.922;4.760;2023-05-13T10:26:20;7.18;;;5.63;;
20671;SDS011;10495;50.922;4.760;2023-05-13T10:28:47;9.60;;;7.32;;
20671;SDS011;10495;50.922;4.760;2023-05-13T10:31:14;7.53;;;6.05;;
20671;SDS011;10495;50.922;4.760;2023-05-13T10:33:41;10.85;;;7.38;;
20671;SDS011;10495;50.922;4.760;2023-05-13T10:44:38;6.75;;;5.97;;
20671;SDS011;10495;50.922;4.760;2023-05-13T10:47:07;11.05;;;6.63;;
20671;SDS011;10495;50.922;4.760;2023-05-13T10:49:34;9.75;;;6.70;;
20671;SDS011;10495;50.922;4.760;2023-05-13T10:52:06;9.85;;;6.13;;
20671;SDS011;10495;50.922;4.760;2023-05-13T10:54:36;8.57;;;6.40;;
20671;SDS011;10495;50.922;4.760;2023-05-13T10:57:05;9.43;;;6.70;;
20671;SDS011;10495;50.922;4.760;2023-05-13T10:59:31;6.55;;;5.95;;
20671;SDS011;10495;50.922;4.760;2023-05-13T11:02:02;6.72;;;6.05;;
20671;SDS011;10495;50.922;4.760;2023-05-13T11:04:57;6.05;;;5.45;;
20671;SDS011;10495;50.922;4.760;2023-05-13T11:07:29;7.57;;;5.63;;
20671;SDS011;10495;50.922;4.760;2023-05-13T11:09:55;5.63;;;5.13;;
20671;SDS011;10495;50.922;4.760;2023-05-13T11:12:20;8.02;;;5.80;;
20671;SDS011;10495;50.922;4.760;2023-05-13T11:14:47;7.25;;;5.82;;
20671;SDS011;10495;50.922;4.760;2023-05-13T11:17:15;7.47;;;5.50;;
20671;SDS011;10495;50.922;4.760;2023-05-13T11:19:46;6.63;;;5.25;;
20671;SDS011;10495;50.922;4.760;2023-05-13T11:24:46;5.43;;;4.93;;
20671;SDS011;10495;50.922;4.760;2023-05-13T11:27:40;5.38;;;4.60;;
20671;SDS011;10495;50.922;4.760;2023-05-13T11:30:22;8.20;;;4.82;;
20671;SDS011;10495;50.922;4.760;2023-05-13T11:35:19;6.13;;;5.45;;
20671;SDS011;10495;50.922;4.760;2023-05-13T11:37:56;7.05;;;5.10;;
20671;SDS011;10495;50.922;4.760;2023-05-13T11:40:26;5.80;;;5.20;;
20671;SDS011;10495;50.922;4.760;2023-05-13T11:42:54;6.57;;;5.13;;
20671;SDS011;10495;50.922;4.760;2023-05-13T11:45:20;5.75;;;5.00;;
20671;SDS011;10495;50.922;4.760;2023-05-13T11:47:48;7.63;;;5.43;;
20671;SDS011;10495;50.922;4.760;2023-05-13T11:52:52;6.22;;;5.63;;
20671;SDS011;10495;50.922;4.760;2023-05-13T11:57:52;7.10;;;5.47;;
20671;SDS011;10495;50.922;4.760;2023-05-13T12:00:25;7.10;;;4.47;;
20671;SDS011;10495;50.922;4.760;2023-05-13T12:02:54;11.95;;;4.93;;
20671;SDS011;10495;50.922;4.760;2023-05-13T12:05:21;5.50;;;4.60;;
20671;SDS011;10495;50.922;4.760;2023-05-13T12:07:47;6.85;;;5.30;;
20671;SDS011;10495;50.922;4.760;2023-05-13T12:10:12;8.50;;;5.60;;
20671;SDS011;10495;50.922;4.760;2023-05-13T12:12:39;5.82;;;4.65;;
20671;SDS011;10495;50.922;4.760;2023-05-13T12:15:08;5.50;;;4.88;;
20671;SDS011;10495;50.922;4.760;2023-05-13T12:17:39;5.88;;;4.60;;
20671;SDS011;10495;50.922;4.760;2023-05-13T12:22:36;7.88;;;5.43;;
20671;SDS011;10495;50.922;4.760;2023-05-13T12:28:10;5.40;;;4.70;;
20671;SDS011;10495;50.922;4.760;2023-05-13T12:35:47;5.90;;;4.40;;
20671;SDS011;10495;50.922;4.760;2023-05-13T12:38:16;5.22;;;4.43;;
20671;SDS011;10495;50.922;4.760;2023-05-13T12:40:48;4.47;;;4.07;;
20671;SDS011;10495;50.922;4.760;2023-05-13T12:43:17;5.63;;;4.35;;
20671;SDS011;10495;50.922;4.760;2023-05-13T12:45:44;5.68;;;4.20;;
20671;SDS011;10495;50.922;4.760;2023-05-13T12:48:11;4.65;;;4.25;;
20671;SDS011;10495;50.922;4.760;2023-05-13T12:50:37;9.68;;;5.03;;
20671;SDS011;10495;50.922;4.760;2023-05-13T12:53:03;5.30;;;4.35;;
20671;SDS011;10495;50.922;4.760;2023-05-13T12:55:29;5.03;;;4.57;;
20671;SDS011;10495;50.922;4.760;2023-05-13T12:58:01;6.75;;;4.35;;
20671;SDS011;10495;50.922;4.760;2023-05-13T13:00:27;10.30;;;4.85;;
20671;SDS011;10495;50.922;4.760;2023-05-13T13:02:54;5.35;;;4.15;;
20671;SDS011;10495;50.922;4.760;2023-05-13T13:05:20;9.35;;;4.57;;
20671;SDS011;10495;50.922;4.760;2023-05-13T13:07:46;4.40;;;4.00;;
20671;SDS011;10495;50.922;4.760;2023-05-13T13:10:13;5.63;;;4.70;;
20671;SDS011;10495;50.922;4.760;2023-05-13T13:12:38;6.25;;;4.50;;
20671;SDS011;10495;50.922;4.760;2023-05-13T13:15:04;4.65;;;4.25;;
20671;SDS011;10495;50.922;4.760;2023-05-13T13:17:31;7.80;;;5.05;;
20671;SDS011;10495;50.922;4.760;2023-05-13T13:19:57;6.47;;;4.32;;
20671;SDS011;10495;50.922;4.760;2023-05-13T13:22:22;4.68;;;4.15;;
20671;SDS011;10495;50.922;4.760;2023-05-13T13:24:48;8.15;;;4.90;;
20671;SDS011;10495;50.922;4.760;2023-05-13T13:27:13;5.82;;;4.88;;
20671;SDS011;10495;50.922;4.760;2023-05-13T13:29:39;6.70;;;4.93;;
20671;SDS011;10495;50.922;4.760;2023-05-13T13:32:05;5.95;;;4.63;;
20671;SDS011;10495;50.922;4.760;2023-05-13T13:34:31;6.57;;;4.45;;
20671;SDS011;10495;50.922;4.760;2023-05-13T13:36:57;7.20;;;4.97;;
20671;SDS011;10495;50.922;4.760;2023-05-13T13:39:22;6.50;;;4.30;;
20671;SDS011;10495;50.922;4.760;2023-05-13T13:41:48;5.03;;;4.53;;
20671;SDS011;10495;50.922;4.760;2023-05-13T13:44:14;10.70;;;5.13;;
20671;SDS011;10495;50.922;4.760;2023-05-13T13:46:39;5.47;;;4.60;;
20671;SDS011;10495;50.922;4.760;2023-05-13T13:49:05;8.20;;;5.15;;
20671;SDS011;10495;50.922;4.760;2023-05-13T13:51:30;8.27;;;4.50;;
20671;SDS011;10495;50.922;4.760;2023-05-13T13:54:02;6.00;;;4.88;;
20671;SDS011;10495;50.922;4.760;2023-05-13T13:56:31;7.97;;;5.10;;
20671;SDS011;10495;50.922;4.760;2023-05-13T13:58:56;5.40;;;4.40;;
20671;SDS011;10495;50.922;4.760;2023-05-13T14:01:22;7.28;;;4.30;;
20671;SDS011;10495;50.922;4.760;2023-05-13T14:03:48;8.70;;;5.32;;
20671;SDS011;10495;50.922;4.760;2023-05-13T14:06:14;5.95;;;3.97;;
20671;SDS011;10495;50.922;4.760;2023-05-13T14:08:40;5.40;;;4.82;;
20671;SDS011;10495;50.922;4.760;2023-05-13T14:11:06;5.00;;;4.50;;
20671;SDS011;10495;50.922;4.760;2023-05-13T14:13:31;9.50;;;4.38;;
20671;SDS011;10495;50.922;4.760;2023-05-13T14:15:57;7.80;;;5.35;;
20671;SDS011;10495;50.922;4.760;2023-05-13T14:18:23;5.15;;;4.35;;
20671;SDS011;10495;50.922;4.760;2023-05-13T14:20:48;5.07;;;4.68;;
20671;SDS011;10495;50.922;4.760;2023-05-13T14:23:14;10.30;;;5.22;;
20671;SDS011;10495;50.922;4.760;2023-05-13T14:25:41;5.20;;;4.70;;
20671;SDS011;10495;50.922;4.760;2023-05-13T14:28:07;7.25;;;4.72;;
20671;SDS011;10495;50.922;4.760;2023-05-13T14:30:33;7.70;;;4.80;;
20671;SDS011;10495;50.922;4.760;2023-05-13T14:32:59;5.10;;;4.60;;
20671;SDS011;10495;50.922;4.760;2023-05-13T14:35:24;6.50;;;4.55;;
20671;SDS011;10495;50.922;4.760;2023-05-13T14:37:50;4.30;;;3.90;;
20671;SDS011;10495;50.922;4.760;2023-05-13T14:40:15;4.80;;;4.20;;
20671;SDS011;10495;50.922;4.760;2023-05-13T14:42:41;7.65;;;4.72;;
20671;SDS011;10495;50.922;4.760;2023-05-13T14:45:07;6.70;;;5.07;;
20671;SDS011;10495;50.922;4.760;2023-05-13T14:47:33;6.30;;;5.28;;
20671;SDS011;10495;50.922;4.760;2023-05-13T14:49:59;5.78;;;4.03;;
20671;SDS011;10495;50.922;4.760;2023-05-13T14:52:25;7.03;;;4.40;;
20671;SDS011;10495;50.922;4.760;2023-05-13T14:54:50;7.25;;;4.70;;
20671;SDS011;10495;50.922;4.760;2023-05-13T14:57:17;8.07;;;4.55;;
20671;SDS011;10495;50.922;4.760;2023-05-13T14:59:43;6.03;;;3.95;;
20671;SDS011;10495;50.922;4.760;2023-05-13T15:02:09;5.10;;;4.03;;
20671;SDS011;10495;50.922;4.760;2023-05-13T15:04:34;4.70;;;4.30;;
20671;SDS011;10495;50.922;4.760;2023-05-13T15:07:00;5.43;;;4.72;;
20671;SDS011;10495;50.922;4.760;2023-05-13T15:09:27;5.70;;;4.30;;
20671;SDS011;10495;50.922;4.760;2023-05-13T15:11:53;7.65;;;4.60;;
20671;SDS011;10495;50.922;4.760;2023-05-13T15:14:18;5.70;;;4.72;;
20671;SDS011;10495;50.922;4.760;2023-05-13T15:16:49;8.57;;;4.20;;
20671;SDS011;10495;50.922;4.760;2023-05-13T15:19:14;7.55;;;4.03;;
20671;SDS011;10495;50.922;4.760;2023-05-13T15:21:40;9.35;;;4.40;;
20671;SDS011;10495;50.922;4.760;2023-05-13T15:24:05;5.05;;;3.80;;
20671;SDS011;10495;50.922;4.760;2023-05-13T15:26:31;6.15;;;4.18;;